KISQ/ISQ METAR and TAF weather

Enter ICAO airport designator
Station Type Date Time Source
KISQ METAR 2020/01/23 09:15 UTC NOAA

KISQ 230915Z AUTO 21003KT 10SM OVC022 01/M01 A3006 RMK AO2 T00051010


Station Type Date Time Source
KISQ Decoded METAR 2020/01/23 09:15 UTC NOAA

Manistique, Schoolcraft County Airport, MI, United States (KISQ) 45-58-29N 086-10-19W
Jan 23, 2020 - 04:15 AM EST / 2020.01.23 0915 UTC
Wind: from the SSW (210 degrees) at 3 MPH (3 KT):0
Visibility: 10 mile(s):0
Sky conditions: overcast
Temperature: 32.9 F (0.5 C)
Dew Point: 30.2 F (-1.0 C)
Relative Humidity: 89%
Pressure (altimeter): 30.06 in. Hg (1017 hPa)
ob: KISQ 230915Z AUTO 21003KT 10SM OVC022 01/M01 A3006 RMK AO2 T00051010
cycle: 9

Station Type Date Time Source
KISQ TAF UTC NOAA

Error!

Example: see airport list